Map

Track Data

SID SEASON NUMBER BASIN SUBBASIN NAME ISO_TIME NATURE LAT LON WMO_WIND WMO_PRES WMO_AGENCY TRACK_TYPE DIST2LAND LANDFALL IFLAG USA_AGENCY USA_ATCF_ID USA_LAT USA_LON USA_RECORD USA_STATUS USA_WIND USA_PRES USA_SSHS USA_R34_NE USA_R34_SE USA_R34_SW USA_R34_NW USA_R50_NE USA_R50_SE USA_R50_SW USA_R50_NW USA_R64_NE USA_R64_SE USA_R64_SW USA_R64_NW USA_POCI USA_ROCI USA_RMW USA_EYE TOKYO_LAT TOKYO_LON TOKYO_GRADE TOKYO_WIND TOKYO_PRES TOKYO_R50_DIR TOKYO_R50_LONG TOKYO_R50_SHORT TOKYO_R30_DIR TOKYO_R30_LONG TOKYO_R30_SHORT TOKYO_LAND CMA_LAT CMA_LON CMA_CAT CMA_WIND CMA_PRES HKO_LAT HKO_LON HKO_CAT HKO_WIND HKO_PRES NEWDELHI_LAT NEWDELHI_LON NEWDELHI_GRADE NEWDELHI_WIND NEWDELHI_PRES NEWDELHI_CI NEWDELHI_DP NEWDELHI_POCI REUNION_LAT REUNION_LON REUNION_TYPE REUNION_WIND REUNION_PRES REUNION_TNUM REUNION_CI REUNION_RMW REUNION_R34_NE REUNION_R34_SE REUNION_R34_SW REUNION_R34_NW REUNION_R50_NE REUNION_R50_SE REUNION_R50_SW REUNION_R50_NW REUNION_R64_NE REUNION_R64_SE REUNION_R64_SW REUNION_R64_NW BOM_LAT BOM_LON BOM_TYPE BOM_WIND BOM_PRES BOM_TNUM BOM_CI BOM_RMW BOM_R34_NE BOM_R34_SE BOM_R34_SW BOM_R34_NW BOM_R50_NE BOM_R50_SE BOM_R50_SW BOM_R50_NW BOM_R64_NE BOM_R64_SE BOM_R64_SW BOM_R64_NW BOM_ROCI BOM_POCI BOM_EYE BOM_POS_METHOD BOM_PRES_METHOD NADI_LAT NADI_LON NADI_CAT NADI_WIND NADI_PRES WELLINGTON_LAT WELLINGTON_LON WELLINGTON_WIND WELLINGTON_PRES DS824_LAT DS824_LON DS824_STAGE DS824_WIND DS824_PRES TD9636_LAT TD9636_LON TD9636_STAGE TD9636_WIND TD9636_PRES TD9635_LAT TD9635_LON TD9635_WIND TD9635_PRES TD9635_ROCI NEUMANN_LAT NEUMANN_LON NEUMANN_CLASS NEUMANN_WIND NEUMANN_PRES MLC_LAT MLC_LON MLC_CLASS MLC_WIND MLC_PRES USA_GUST BOM_GUST BOM_GUST_PER REUNION_GUST REUNION_GUST_PER USA_SEAHGT USA_SEARAD_NE USA_SEARAD_SE USA_SEARAD_SW USA_SEARAD_NW STORM_SPEED STORM_DIR
1873001S17058 1873 2 SI MM NOT_NAMED 1873-01-01 06:00:00 NR -16.7000 57.5000 spur-split 380 347 __________O___ -1 -16.7000 57.5000 7 10 223
1873001S17058 1873 2 SI MM NOT_NAMED 1873-01-01 09:00:00 NR -17.0459 57.1591 spur-split 348 310 __________P___ -1 -17.0459 57.1591 7 9 223
1873001S17058 1873 2 SI MM NOT_NAMED 1873-01-01 12:00:00 NR -17.3832 56.8240 spur-split 310 284 __________P___ -1 -17.3832 56.8240 7 9 224
1873001S17058 1873 2 SI MM NOT_NAMED 1873-01-01 15:00:00 NR -17.7038 56.5019 spur-split 288 271 __________P___ -1 -17.7038 56.5019 7 9 224
1873001S17058 1873 2 SI MM NOT_NAMED 1873-01-01 18:00:00 NR -18.0000 56.2000 spur-split 271 262 __________O___ -1 -18.0000 56.2000 7 8 224
1873001S17058 1873 2 SI MM NOT_NAMED 1873-01-01 21:00:00 NR -18.2687 55.9219 spur-split 262 260 __________P___ -1 -18.2687 55.9219 7 7 224
1873001S17058 1873 2 SI MM NOT_NAMED 1873-01-02 00:00:00 NR -18.5270 55.6562 spur-split 260 246 __________P___ -1 -18.5270 55.6562 7 7 224
1873001S17058 1873 2 SI MM NOT_NAMED 1873-01-02 03:00:00 NR -18.7968 55.3874 spur-split 246 213 __________P___ -1 -18.7968 55.3874 7 8 223
1873001S17058 1873 2 SI MM NOT_NAMED 1873-01-02 06:00:00 NR -19.1000 55.1000 spur-split 213 183 __________O___ -1 -19.1000 55.1000 7 9 221
1873001S17058 1873 2 SI MM NOT_NAMED 1873-01-02 09:00:00 NR -19.4642 54.7636 spur-split 175 157 __________P___ -1 -19.4642 54.7636 7 10 221
1873001S17058 1873 2 SI MM NOT_NAMED 1873-01-02 12:00:00 NR -19.8627 54.4077 spur-split 154 145 __________P___ -1 -19.8627 54.4077 7 11 220
1873001S17058 1873 2 SI MM NOT_NAMED 1873-01-02 15:00:00 NR -20.2798 54.0479 spur-split 153 147 __________P___ -1 -20.2798 54.0479 7 11 218
1873001S17058 1873 2 SI MM NOT_NAMED 1873-01-02 18:00:00 NR -20.7000 53.7000 spur-split 162 162 __________O___ -1 -20.7000 53.7000 7 11 217
1873001S17058 1873 2 SI MM NOT_NAMED 1873-01-02 21:00:00 NR -21.1365 53.3575 spur-split 186 186 __________P___ -1 -21.1365 53.3575 7 11 216
1873001S17058 1873 2 SI MM NOT_NAMED 1873-01-03 00:00:00 NR -21.5675 53.0331 spur-split 234 234 __________P___ -1 -21.5675 53.0331 7 10 215
1873001S17058 1873 2 SI MM NOT_NAMED 1873-01-03 03:00:00 NR -21.9647 52.7420 spur-split 277 277 __________P___ -1 -21.9647 52.7420 7 9 214
1873001S17058 1873 2 SI MM NOT_NAMED 1873-01-03 06:00:00 NR -22.3000 52.5000 spur-split 309 309 __________O___ -1 -22.3000 52.5000 7 7 214
1873001S17058 1873 2 SI MM NOT_NAMED 1873-01-03 09:00:00 NR -22.5393 52.3197 spur-split 337 337 __________P___ -1 -22.5393 52.3197 7 5 215
1873001S17058 1873 2 SI MM NOT_NAMED 1873-01-03 12:00:00 NR -22.7171 52.1889 spur-split 355 355 __________P___ -1 -22.7171 52.1889 7 4 213
1873001S17058 1873 2 SI MM NOT_NAMED 1873-01-03 15:00:00 NR -22.8613 52.0887 spur-split 374 374 __________P___ -1 -22.8613 52.0887 7 3 211
1873001S17058 1873 2 SI MM NOT_NAMED 1873-01-03 18:00:00 NR -23.0000 52.0000 spur-split 389 389 __________O___ -1 -23.0000 52.0000 7 3 210
1873001S17058 1873 2 SI MM NOT_NAMED 1873-01-03 21:00:00 NR -23.1587 51.9006 spur-split 409 401 __________P___ -1 -23.1587 51.9006 7 4 209
1873001S17058 1873 2 SI MM NOT_NAMED 1873-01-04 00:00:00 NR -23.3199 51.8070 spur-split 405 400 __________P___ -1 -23.3199 51.8070 7 4 208
1873001S17058 1873 2 SI MM NOT_NAMED 1873-01-04 03:00:00 NR -23.4962 51.7099 spur-split 404 395 __________P___ -1 -23.4962 51.7099 7 4 206
1873001S17058 1873 2 SI MM NOT_NAMED 1873-01-04 06:00:00 NR -23.7000 51.6000 spur-split 398 389 __________O___ -1 -23.7000 51.6000 7 5 206
1873001S17058 1873 2 SI MM NOT_NAMED 1873-01-04 09:00:00 NR -23.9625 51.4606 spur-split 392 376 __________P___ -1 -23.9625 51.4606 7 6 206
1873001S17058 1873 2 SI MM NOT_NAMED 1873-01-04 12:00:00 NR -24.2501 51.3079 spur-split 379 372 __________P___ -1 -24.2501 51.3079 7 6 206
1873001S17058 1873 2 SI MM NOT_NAMED 1873-01-04 15:00:00 NR -24.5375 51.1512 spur-split 376 362 __________P___ -1 -24.5375 51.1512 7 6 207
1873001S17058 1873 2 SI MM NOT_NAMED 1873-01-04 18:00:00 NR -24.8000 51.0000 spur-split 365 358 __________O___ -1 -24.8000 51.0000 7 5 209
1873001S17058 1873 2 SI MM NOT_NAMED 1873-01-04 21:00:00 NR -24.9711 50.8832 spur-split 361 351 __________P___ -1 -24.9711 50.8832 7 4 213
1873001S17058 1873 2 SI MM NOT_NAMED 1873-01-05 00:00:00 NR -25.1197 50.7712 spur-split 355 350 __________P___ -1 -25.1197 50.7712 7 4 214
1873001S17058 1873 2 SI MM NOT_NAMED 1873-01-05 03:00:00 NR -25.2835 50.6487 spur-split 344 337 __________P___ -1 -25.2835 50.6487 7 5 213
1873001S17058 1873 2 SI MM NOT_NAMED 1873-01-05 06:00:00 NR -25.5000 50.5000 spur-split 341 333 __________O___ -1 -25.5000 50.5000 7 6 210
1873001S17058 1873 2 SI MM NOT_NAMED 1873-01-05 09:00:00 NR -25.8217 50.3041 spur-split 333 324 __________P___ -1 -25.8217 50.3041 7 8 208
1873001S17058 1873 2 SI MM NOT_NAMED 1873-01-05 12:00:00 NR -26.1976 50.0805 spur-split 329 320 __________P___ -1 -26.1976 50.0805 7 9 208
1873001S17058 1873 2 SI MM NOT_NAMED 1873-01-05 15:00:00 NR -26.5998 49.8415 spur-split 323 323 __________P___ -1 -26.5998 49.8415 7 9 208
1873001S17058 1873 2 SI MM NOT_NAMED 1873-01-05 18:00:00 NR -27.0000 49.6000 spur-split 334 334 __________O___ -1 -27.0000 49.6000 7 8 210
1873001S17058 1873 2 SI MM NOT_NAMED 1873-01-05 21:00:00 NR -27.3082 49.3894 spur-split 342 342 __________P___ -1 -27.3082 49.3894 7 7 211
1873001S17058 1873 2 SI MM NOT_NAMED 1873-01-06 00:00:00 NR -27.6171 49.1772 spur-split 354 354 __________P___ -1 -27.6171 49.1772 7 8 210
1873001S17058 1873 2 SI MM NOT_NAMED 1873-01-06 03:00:00 NR -27.9675 48.9514 spur-split 380 374 __________P___ -1 -27.9675 48.9514 7 9 208
1873001S17058 1873 2 SI MM NOT_NAMED 1873-01-06 06:00:00 NR -28.4000 48.7000 spur-split 403 403 __________O___ -1 -28.4000 48.7000 7 11 205
1873001S17058 1873 2 SI MM NOT_NAMED 1873-01-06 09:00:00 NR -28.9760 48.4085 spur-split 452 452 __________P___ -1 -28.9760 48.4085 7 13 203
1873001S17058 1873 2 SI MM NOT_NAMED 1873-01-06 12:00:00 NR -29.6326 48.0883 spur-split 507 507 __________P___ -1 -29.6326 48.0883 7 15 203
1873001S17058 1873 2 SI MM NOT_NAMED 1873-01-06 15:00:00 NR -30.3229 47.7488 spur-split 567 567 __________P___ -1 -30.3229 47.7488 7 15 203
1873001S17058 1873 2 SI MM NOT_NAMED 1873-01-06 18:00:00 NR -31.0000 47.4000 spur-split 630 630 __________O___ -1 -31.0000 47.4000 7 14 205
1873001S17058 1873 2 SI MM NOT_NAMED 1873-01-06 21:00:00 NR -31.6276 47.0508 spur-split 687 687 __________P___ -1 -31.6276 47.0508 7 14 206
1873001S17058 1873 2 SI MM NOT_NAMED 1873-01-07 00:00:00 NR -32.2104 46.7020 spur-split 745 745 __________P___ -1 -32.2104 46.7020 7 13 207
1873001S17058 1873 2 SI MM NOT_NAMED 1873-01-07 03:00:00 NR -32.7630 46.3523 spur-split 808 807 __________P___ -1 -32.7630 46.3523 7 12 208
1873001S17058 1873 2 SI MM NOT_NAMED 1873-01-07 06:00:00 NR -33.3000 46.0000 spur-split 860 __________O___ -1 -33.3000 46.0000 7 12 209

About IBTrACS Database

This database is a web-friendly format of International Best Track Archive for Climate Stewardship (IBTrACS), a global best track data archive curated by NOAA dating back to 1842.

Updated: 2021-12-08